Linda — OJML — position and weather

sailwx.info

Track history (hours):
 
Tides and Currents Weather Stations Pressure Air Temp Water Temp Dewpoint Dewpoint Depression Visibility Wind Speed Wind Dir Waves Ship Positions

Linda

Last reported at 2016-Apr-29 07:33 UTC. Time now 2016-Apr-29 08:09 UTC.
Position N 55°37' E 015°25'.

Length 141 m; draft 7 m.

Type: Ship (hazmat cat A). MMSI: 230984000.

Date/timePositionNaut miles runAvg speedWind from/ knotsBaromVisibWave heightAir tempDewpointWater temp
2016-Apr-29 07:33N 55°37' E 015°25'1212.2
2016-Apr-29 06:33N 55°31' E 015°06'1312.8
2016-Apr-29 05:33N 55°25' E 014°46'1312.6
2016-Apr-29 04:33N 55°17' E 014°29'1211.9
2016-Apr-29 03:33N 55°10' E 014°12'1312.6
2016-Apr-29 02:33N 55°11' E 013°50'1212.4
2016-Apr-29 01:33N 55°13' E 013°29'1412.7
2016-Apr-29 00:25N 55°14' E 013°04'1113.0
2016-Apr-28 23:33N 55°17' E 012°45'1110.5
2016-Apr-28 22:33N 55°27' E 012°41'1211.9
2016-Apr-28 21:33N 55°39' E 012°41'1515.2
2016-Apr-28 20:34N 55°54' E 012°39'1312.9
2016-Apr-28 19:33N 56°06' E 012°32'1615.8
2016-Apr-28 18:33N 56°15' E 012°09'3115.3
2016-Apr-28 16:30N 56°45' E 011°52'1515.9
2016-Apr-28 15:33N 56°59' E 011°43'1615.4
2016-Apr-28 14:30N 57°15' E 011°32'1415.1
2016-Apr-28 13:33N 57°28' E 011°23'1515.0
2016-Apr-28 12:33N 57°37' E 011°01'1414.4
2016-Apr-28 11:33N 57°47' E 010°40'26713.9
2016-Apr-27 16:20N 54°25' E 005°27'1113.3
2016-Apr-27 15:30N 54°15' E 005°17'1313.3
2016-Apr-27 14:34N 54°04' E 005°08'1413.5
2016-Apr-27 13:34N 53°51' E 005°00'4414.4
2016-Apr-27 10:31N 53°10' E 004°32'1414.8
2016-Apr-27 09:34N 52°58' E 004°21'1515.1
2016-Apr-27 08:34N 52°45' E 004°09'1515.3
2016-Apr-27 07:33N 52°32' E 003°56'1515.2
2016-Apr-27 06:34N 52°17' E 003°52'1514.7
2016-Apr-27 05:34N 52°02' E 003°59'1211.9
2016-Apr-27 04:33N 51°55' E 004°14'7 7.0
2016-Apr-27 03:31N 51°53' E 004°25'0 0.0
2016-Apr-27 02:31N 51°53' E 004°25'0 0.0
2016-Apr-27 01:31N 51°53' E 004°25'0 0.0
2016-Apr-27 00:31N 51°53' E 004°25'0 0.0
2016-Apr-26 23:31N 51°53' E 004°25'0 0.0
2016-Apr-26 22:31N 51°53' E 004°25'0 0.0
2016-Apr-26 21:31N 51°53' E 004°25'0 0.0
2016-Apr-26 20:31N 51°53' E 004°25'0 0.0
2016-Apr-26 19:31N 51°53' E 004°25'0 0.0
2016-Apr-26 18:31N 51°53' E 004°25'0 0.0
2016-Apr-26 17:31N 51°53' E 004°25'0 0.0
2016-Apr-26 16:31N 51°53' E 004°25'0 0.0
2016-Apr-26 15:31N 51°53' E 004°25'0 0.0
2016-Apr-26 14:31N 51°53' E 004°25'0 0.0
2016-Apr-26 13:31N 51°53' E 004°25'0 0.0
2016-Apr-26 12:31N 51°53' E 004°25'0 0.0
2016-Apr-26 11:31N 51°53' E 004°25'0 0.0
2016-Apr-26 10:31N 51°53' E 004°25'0 0.0
2016-Apr-26 09:31N 51°53' E 004°25'0 0.0
2016-Apr-26 08:31N 51°53' E 004°25'0 0.0
2016-Apr-26 07:31N 51°53' E 004°25'0 0.0
2016-Apr-26 06:31N 51°53' E 004°25'0 0.0
2016-Apr-26 05:31N 51°53' E 004°25'0 0.0
2016-Apr-26 04:34N 51°53' E 004°25'6 6.3
2016-Apr-26 03:33N 51°55' E 004°15'1212.3
2016-Apr-26 02:34N 52°00' E 003°58'1515.0
2016-Apr-26 01:33N 52°06' E 003°35'1817.2
2016-Apr-26 00:32N 52°15' E 003°10'1717.5
2016-Apr-25 23:33N 52°25' E 002°47'3718.5
2016-Apr-25 21:33N 52°51' E 002°04'1919.0
2016-Apr-25 20:33N 53°03' E 001°40'2618.4
2016-Apr-25 19:07N 53°22' E 001°09'4718.4
2016-Apr-25 16:33N 53°59' E 000°20'1818.0
2016-Apr-25 15:33N 54°12' W 000°01'1817.5
2016-Apr-25 14:34N 54°25' W 000°22'1716.7
2016-Apr-25 13:33N 54°35' W 000°44'1414.5
2016-Apr-25 12:33N 54°39' W 001°08'3 2.8
2016-Apr-25 11:32N 54°36' W 001°09'0 0.0
2016-Apr-25 10:23N 54°36' W 001°09'0 0.0
2016-Apr-25 09:32N 54°36' W 001°09'0 0.0
2016-Apr-25 07:20N 54°36' W 001°09'0 0.0
2016-Apr-25 06:20N 54°36' W 001°09'0 0.0
2016-Apr-25 05:26N 54°36' W 001°09'0 0.2
2016-Apr-25 04:33N 54°36' W 001°09'9 9.4
2016-Apr-25 03:33N 54°44' W 000°59'1211.5
2016-Apr-25 02:32N 54°49' W 000°41'1212.1
2016-Apr-25 01:33N 54°55' W 000°23'40414.4
2016-Apr-23 21:33N 57°48' E 010°35'1615.6
2016-Apr-23 20:33N 57°41' E 011°00'1616.1
2016-Apr-23 19:33N 57°30' E 011°22'1515.2
2016-Apr-23 18:33N 57°16' E 011°34'1515.5
2016-Apr-23 17:33N 57°01' E 011°43'1515.3
2016-Apr-23 16:33N 56°47' E 011°53'9713.9
2016-Apr-23 09:33N 55°13' E 011°06'1413.7
2016-Apr-23 08:33N 54°60' E 011°02'1514.5
2016-Apr-23 07:34N 54°46' E 010°53'1414.3
2016-Apr-23 06:34N 54°36' E 011°11'1515.4
2016-Apr-23 05:33N 54°30' E 011°35'1515.4
2016-Apr-23 04:33N 54°26' E 012°01'1413.2
2016-Apr-23 03:32N 54°36' E 012°16'4515.2
2016-Apr-23 00:33N 54°56' E 013°27'1615.9
2016-Apr-22 23:33N 55°02' E 013°52'1615.6
2016-Apr-22 22:33N 55°11' E 014°15'1616.3
2016-Apr-22 21:33N 55°24' E 014°32'1616.0
2016-Apr-22 20:33N 55°33' E 014°56'1615.9
2016-Apr-22 19:33N 55°41' E 015°21'344 7.5
2016-Apr-20 21:33N 59°36' E 023°09'1616.4
2016-Apr-20 20:33N 59°42' E 023°39'  
Track history (hours):
 
Tides and Currents Weather Stations Pressure Air Temp Water Temp Dewpoint Dewpoint Depression Visibility Wind Speed Wind Dir Waves Ship Positions

Linda

Last reported at 2016-Apr-29 07:33 UTC. Time now 2016-Apr-29 08:09 UTC.
Position N 55°37' E 015°25'.

Length 141 m; draft 7 m.

Type: Ship (hazmat cat A). MMSI: 230984000.

Date/timePositionNaut miles runAvg speedWind from/ knotsBaromVisibWave heightAir tempDewpointWater temp
2016-Apr-29 07:33N 55°37' E 015°25'1212.2
2016-Apr-29 06:33N 55°31' E 015°06'1312.8
2016-Apr-29 05:33N 55°25' E 014°46'1312.6
2016-Apr-29 04:33N 55°17' E 014°29'1211.9
2016-Apr-29 03:33N 55°10' E 014°12'1312.6
2016-Apr-29 02:33N 55°11' E 013°50'1212.4
2016-Apr-29 01:33N 55°13' E 013°29'1412.7
2016-Apr-29 00:25N 55°14' E 013°04'1113.0
2016-Apr-28 23:33N 55°17' E 012°45'1110.5
2016-Apr-28 22:33N 55°27' E 012°41'1211.9
2016-Apr-28 21:33N 55°39' E 012°41'1515.2
2016-Apr-28 20:34N 55°54' E 012°39'1312.9
2016-Apr-28 19:33N 56°06' E 012°32'1615.8
2016-Apr-28 18:33N 56°15' E 012°09'3115.3
2016-Apr-28 16:30N 56°45' E 011°52'1515.9
2016-Apr-28 15:33N 56°59' E 011°43'1615.4
2016-Apr-28 14:30N 57°15' E 011°32'1415.1
2016-Apr-28 13:33N 57°28' E 011°23'1515.0
2016-Apr-28 12:33N 57°37' E 011°01'1414.4
2016-Apr-28 11:33N 57°47' E 010°40'26713.9
2016-Apr-27 16:20N 54°25' E 005°27'1113.3
2016-Apr-27 15:30N 54°15' E 005°17'1313.3
2016-Apr-27 14:34N 54°04' E 005°08'1413.5
2016-Apr-27 13:34N 53°51' E 005°00'4414.4
2016-Apr-27 10:31N 53°10' E 004°32'1414.8
2016-Apr-27 09:34N 52°58' E 004°21'1515.1
2016-Apr-27 08:34N 52°45' E 004°09'1515.3
2016-Apr-27 07:33N 52°32' E 003°56'1515.2
2016-Apr-27 06:34N 52°17' E 003°52'1514.7
2016-Apr-27 05:34N 52°02' E 003°59'1211.9
2016-Apr-27 04:33N 51°55' E 004°14'7 7.0
2016-Apr-27 03:31N 51°53' E 004°25'0 0.0
2016-Apr-27 02:31N 51°53' E 004°25'0 0.0
2016-Apr-27 01:31N 51°53' E 004°25'0 0.0
2016-Apr-27 00:31N 51°53' E 004°25'0 0.0
2016-Apr-26 23:31N 51°53' E 004°25'0 0.0
2016-Apr-26 22:31N 51°53' E 004°25'0 0.0
2016-Apr-26 21:31N 51°53' E 004°25'0 0.0
2016-Apr-26 20:31N 51°53' E 004°25'0 0.0
2016-Apr-26 19:31N 51°53' E 004°25'0 0.0
2016-Apr-26 18:31N 51°53' E 004°25'0 0.0
2016-Apr-26 17:31N 51°53' E 004°25'0 0.0
2016-Apr-26 16:31N 51°53' E 004°25'0 0.0
2016-Apr-26 15:31N 51°53' E 004°25'0 0.0
2016-Apr-26 14:31N 51°53' E 004°25'0 0.0
2016-Apr-26 13:31N 51°53' E 004°25'0 0.0
2016-Apr-26 12:31N 51°53' E 004°25'0 0.0
2016-Apr-26 11:31N 51°53' E 004°25'0 0.0
2016-Apr-26 10:31N 51°53' E 004°25'0 0.0
2016-Apr-26 09:31N 51°53' E 004°25'0 0.0
2016-Apr-26 08:31N 51°53' E 004°25'0 0.0
2016-Apr-26 07:31N 51°53' E 004°25'0 0.0
2016-Apr-26 06:31N 51°53' E 004°25'0 0.0
2016-Apr-26 05:31N 51°53' E 004°25'0 0.0
2016-Apr-26 04:34N 51°53' E 004°25'6 6.3
2016-Apr-26 03:33N 51°55' E 004°15'1212.3
2016-Apr-26 02:34N 52°00' E 003°58'1515.0
2016-Apr-26 01:33N 52°06' E 003°35'1817.2
2016-Apr-26 00:32N 52°15' E 003°10'1717.5
2016-Apr-25 23:33N 52°25' E 002°47'3718.5
2016-Apr-25 21:33N 52°51' E 002°04'1919.0
2016-Apr-25 20:33N 53°03' E 001°40'2618.4
2016-Apr-25 19:07N 53°22' E 001°09'4718.4
2016-Apr-25 16:33N 53°59' E 000°20'1818.0
2016-Apr-25 15:33N 54°12' W 000°01'1817.5
2016-Apr-25 14:34N 54°25' W 000°22'1716.7
2016-Apr-25 13:33N 54°35' W 000°44'1414.5
2016-Apr-25 12:33N 54°39' W 001°08'3 2.8
2016-Apr-25 11:32N 54°36' W 001°09'0 0.0
2016-Apr-25 10:23N 54°36' W 001°09'0 0.0
2016-Apr-25 09:32N 54°36' W 001°09'0 0.0
2016-Apr-25 07:20N 54°36' W 001°09'0 0.0
2016-Apr-25 06:20N 54°36' W 001°09'0 0.0
2016-Apr-25 05:26N 54°36' W 001°09'0 0.2
2016-Apr-25 04:33N 54°36' W 001°09'9 9.4
2016-Apr-25 03:33N 54°44' W 000°59'1211.5
2016-Apr-25 02:32N 54°49' W 000°41'1212.1
2016-Apr-25 01:33N 54°55' W 000°23'40414.4
2016-Apr-23 21:33N 57°48' E 010°35'1615.6
2016-Apr-23 20:33N 57°41' E 011°00'1616.1
2016-Apr-23 19:33N 57°30' E 011°22'1515.2
2016-Apr-23 18:33N 57°16' E 011°34'1515.5
2016-Apr-23 17:33N 57°01' E 011°43'1515.3
2016-Apr-23 16:33N 56°47' E 011°53'9713.9
2016-Apr-23 09:33N 55°13' E 011°06'1413.7
2016-Apr-23 08:33N 54°60' E 011°02'1514.5
2016-Apr-23 07:34N 54°46' E 010°53'1414.3
2016-Apr-23 06:34N 54°36' E 011°11'1515.4
2016-Apr-23 05:33N 54°30' E 011°35'1515.4
2016-Apr-23 04:33N 54°26' E 012°01'1413.2
2016-Apr-23 03:32N 54°36' E 012°16'4515.2
2016-Apr-23 00:33N 54°56' E 013°27'1615.9
2016-Apr-22 23:33N 55°02' E 013°52'1615.6
2016-Apr-22 22:33N 55°11' E 014°15'1616.3
2016-Apr-22 21:33N 55°24' E 014°32'1616.0
2016-Apr-22 20:33N 55°33' E 014°56'1615.9
2016-Apr-22 19:33N 55°41' E 015°21'344 7.5
2016-Apr-20 21:33N 59°36' E 023°09'1616.4
2016-Apr-20 20:33N 59°42' E 023°39'  

Dump ship's entire track history